createdAt,value
2017-04-27T00:00:07.935Z,82.22
2017-04-27T00:01:07.542Z,82.19
2017-04-27T00:02:08.309Z,81.83
2017-04-27T00:03:07.832Z,81.91
2017-04-27T00:04:08.484Z,82.06
2017-04-27T00:05:07.933Z,81.76
2017-04-27T00:06:07.587Z,82.08
2017-04-27T00:07:08.395Z,82.40
2017-04-27T00:08:07.889Z,81.92
2017-04-27T00:09:08.521Z,81.87
2017-04-27T00:10:08.124Z,81.62
2017-04-27T00:11:07.708Z,81.78
2017-04-27T00:12:08.294Z,81.84
2017-04-27T00:13:07.873Z,81.46
2017-04-27T00:14:08.452Z,81.36
2017-04-27T00:15:07.978Z,81.52
2017-04-27T00:16:07.548Z,81.13
2017-04-27T00:17:08.234Z,81.42
2017-04-27T00:18:08.066Z,81.78
2017-04-27T00:19:07.581Z,81.69
2017-04-27T00:20:08.115Z,81.55
2017-04-27T00:21:07.580Z,81.24
2017-04-27T00:22:08.275Z,81.32
2017-04-27T00:23:07.908Z,80.89
2017-04-27T00:24:08.497Z,81.20
2017-04-27T00:25:08.012Z,81.15
2017-04-27T00:26:07.440Z,81.57
2017-04-27T00:27:08.074Z,81.63
2017-04-27T00:28:07.558Z,82.11
2017-04-27T00:29:08.069Z,81.85
2017-04-27T00:30:07.617Z,81.87
2017-04-27T00:31:08.085Z,81.54
2017-04-27T00:32:07.624Z,80.96
2017-04-27T00:33:08.450Z,80.94
2017-04-27T00:34:08.015Z,81.30
2017-04-27T00:35:07.646Z,81.17
2017-04-27T00:36:08.201Z,80.95
2017-04-27T00:37:07.773Z,81.07
2017-04-27T00:38:08.382Z,81.17
2017-04-27T00:39:07.854Z,81.60
2017-04-27T00:40:08.427Z,81.81
2017-04-27T00:41:07.955Z,81.52
2017-04-27T00:42:07.444Z,81.50
2017-04-27T00:43:07.898Z,81.34
2017-04-27T00:44:08.448Z,81.79
2017-04-27T00:45:08.012Z,81.67
2017-04-27T00:46:08.407Z,81.50
2017-04-27T00:47:07.937Z,81.28
2017-04-27T00:48:07.455Z,81.12
2017-04-27T00:49:07.946Z,81.25
2017-04-27T00:50:07.454Z,81.14
2017-04-27T00:51:08.014Z,81.12
2017-04-27T00:52:07.792Z,81.06
2017-04-27T00:53:08.312Z,80.75
2017-04-27T00:54:07.776Z,81.16
2017-04-27T00:55:08.365Z,81.38
2017-04-27T00:56:07.822Z,81.34
2017-04-27T00:57:08.387Z,81.26
2017-04-27T00:58:07.937Z,81.36
2017-04-27T00:59:07.609Z,81.41
2017-04-27T01:00:08.124Z,81.45
2017-04-27T01:01:07.653Z,81.52
2017-04-27T01:02:08.358Z,81.42
2017-04-27T01:03:07.956Z,81.49
2017-04-27T01:04:07.403Z,81.06
2017-04-27T01:05:08.181Z,81.06
2017-04-27T01:06:07.685Z,80.89
2017-04-27T01:07:08.320Z,81.03
2017-04-27T01:08:07.919Z,81.27
2017-04-27T01:09:08.455Z,81.53
2017-04-27T01:10:07.978Z,81.58
2017-04-27T01:11:07.779Z,81.44
2017-04-27T01:12:08.401Z,80.91
2017-04-27T01:13:08.004Z,80.87
2017-04-27T01:14:07.512Z,80.84
2017-04-27T01:15:08.118Z,81.63
2017-04-27T01:16:18.260Z,81.71
2017-04-27T01:17:07.897Z,81.52
2017-04-27T01:18:08.426Z,81.39
2017-04-27T01:19:07.882Z,81.34
2017-04-27T01:20:08.662Z,81.42
2017-04-27T01:21:08.259Z,81.34
2017-04-27T01:22:08.074Z,81.28
2017-04-27T01:23:07.697Z,81.41
2017-04-27T01:24:08.271Z,81.47
2017-04-27T01:25:07.916Z,81.30
2017-04-27T01:26:08.513Z,80.67
2017-04-27T01:27:08.063Z,81.41
2017-04-27T01:28:07.565Z,81.91
2017-04-27T01:29:08.151Z,81.64
2017-04-27T01:30:07.616Z,80.96
2017-04-27T01:31:08.137Z,81.28
2017-04-27T01:32:07.688Z,81.19
2017-04-27T01:33:08.216Z,80.79
2017-04-27T01:34:07.780Z,80.41
2017-04-27T01:35:08.398Z,79.95
2017-04-27T01:36:07.964Z,79.74
2017-04-27T01:37:07.646Z,79.43
2017-04-27T01:38:08.365Z,79.29
2017-04-27T01:39:07.986Z,79.28
2017-04-27T01:40:07.446Z,79.13
2017-04-27T01:41:08.006Z,79.19
2017-04-27T01:42:07.515Z,79.46
2017-04-27T01:43:07.974Z,79.51
2017-04-27T01:44:07.498Z,79.61
2017-04-27T01:45:08.120Z,79.79
2017-04-27T01:46:07.589Z,79.82
2017-04-27T01:47:08.215Z,80.17
2017-04-27T01:48:07.741Z,80.38
2017-04-27T01:49:07.546Z,80.65
2017-04-27T01:50:08.071Z,80.73
2017-04-27T01:51:07.505Z,80.67
2017-04-27T01:52:07.638Z,80.81
2017-04-27T01:53:08.114Z,80.45
2017-04-27T01:54:07.739Z,79.92
2017-04-27T01:55:08.228Z,79.58
2017-04-27T01:56:07.689Z,79.59
2017-04-27T01:57:08.397Z,79.60
2017-04-27T01:58:07.888Z,80.04
2017-04-27T01:59:08.529Z,80.25
2017-04-27T02:00:08.163Z,80.31
2017-04-27T02:01:07.744Z,80.64
2017-04-27T02:02:08.426Z,80.46
2017-04-27T02:03:08.049Z,80.22
2017-04-27T02:04:07.518Z,80.23
2017-04-27T02:05:08.104Z,80.26
2017-04-27T02:06:07.536Z,80.34
2017-04-27T02:07:08.257Z,79.84
2017-04-27T02:08:07.874Z,80.15
2017-04-27T02:09:08.422Z,80.35
2017-04-27T02:10:07.931Z,80.29
2017-04-27T02:11:08.469Z,80.24
2017-04-27T02:12:07.950Z,80.17
2017-04-27T02:13:07.490Z,79.97
2017-04-27T02:14:08.030Z,79.74
2017-04-27T02:15:07.566Z,79.91
2017-04-27T02:16:08.048Z,80.13
2017-04-27T02:17:07.579Z,80.37
2017-04-27T02:18:07.568Z,80.10
2017-04-27T02:19:08.206Z,79.71
2017-04-27T02:20:07.788Z,79.65
2017-04-27T02:21:08.276Z,79.52
2017-04-27T02:22:07.868Z,79.59
2017-04-27T02:23:08.466Z,79.13
2017-04-27T02:24:07.983Z,79.42
2017-04-27T02:25:07.552Z,79.48
2017-04-27T02:26:08.116Z,79.50
2017-04-27T02:27:07.698Z,79.64
2017-04-27T02:28:08.291Z,79.88
2017-04-27T02:29:07.889Z,79.93
2017-04-27T02:30:08.463Z,79.66
2017-04-27T02:31:08.202Z,79.54
2017-04-27T02:32:07.755Z,79.48
2017-04-27T02:33:08.404Z,79.43
2017-04-27T02:34:07.867Z,79.43
2017-04-27T02:35:08.240Z,79.57
2017-04-27T02:36:07.874Z,79.84
2017-04-27T02:37:08.592Z,79.57
2017-04-27T02:38:08.212Z,80.00
2017-04-27T02:39:07.771Z,80.14
2017-04-27T02:40:08.313Z,80.45
2017-04-27T02:41:07.930Z,79.86
2017-04-27T02:42:08.472Z,79.82
2017-04-27T02:43:08.123Z,79.64
2017-04-27T02:44:07.661Z,79.69
2017-04-27T02:45:08.339Z,80.03
2017-04-27T02:46:07.845Z,80.03
2017-04-27T02:47:08.267Z,80.47
2017-04-27T02:48:07.899Z,80.31
2017-04-27T02:49:08.444Z,80.50
2017-04-27T02:50:07.991Z,80.78
2017-04-27T02:51:07.574Z,80.91
2017-04-27T02:52:08.290Z,80.73
2017-04-27T02:53:07.839Z,80.56
2017-04-27T02:54:08.450Z,80.89
2017-04-27T02:55:08.045Z,81.37
2017-04-27T02:56:07.622Z,81.24
2017-04-27T02:57:08.214Z,80.74
2017-04-27T02:58:07.868Z,80.74
2017-04-27T02:59:08.459Z,80.93
2017-04-27T03:00:07.973Z,81.28
2017-04-27T03:01:07.470Z,81.25
2017-04-27T03:02:08.069Z,81.36
2017-04-27T03:03:07.669Z,81.21
2017-04-27T03:04:08.272Z,80.92
2017-04-27T03:05:07.819Z,81.32
2017-04-27T03:06:08.427Z,81.22
2017-04-27T03:07:08.018Z,81.82
2017-04-27T03:08:07.793Z,81.83
2017-04-27T03:09:08.382Z,81.53
2017-04-27T03:10:07.949Z,81.06
2017-04-27T03:11:07.423Z,81.84
2017-04-27T03:12:08.320Z,82.71
2017-04-27T03:13:07.944Z,82.60
2017-04-27T03:14:07.456Z,82.21
2017-04-27T03:16:07.746Z,81.60
2017-04-27T03:16:11.148Z,81.69
2017-04-27T03:17:07.868Z,81.73
2017-04-27T03:18:08.435Z,81.54
2017-04-27T03:19:07.917Z,81.76
2017-04-27T03:20:08.445Z,81.83
2017-04-27T03:21:07.920Z,81.72
2017-04-27T03:22:08.560Z,81.01
2017-04-27T03:23:08.175Z,81.04
2017-04-27T03:24:07.630Z,80.99
2017-04-27T03:25:08.181Z,81.10
2017-04-27T03:26:07.738Z,81.16
2017-04-27T03:27:08.248Z,81.02
2017-04-27T03:28:07.828Z,81.46
2017-04-27T03:29:08.387Z,81.66
2017-04-27T03:30:07.960Z,81.40
2017-04-27T03:31:07.596Z,82.08
2017-04-27T03:32:08.039Z,81.86
2017-04-27T03:33:07.653Z,81.74
2017-04-27T03:34:08.221Z,81.57
2017-04-27T03:35:07.698Z,81.56
2017-04-27T03:36:08.264Z,82.22
2017-04-27T03:37:07.979Z,82.64
2017-04-27T03:38:07.434Z,82.85
2017-04-27T03:39:07.924Z,82.55
2017-04-27T03:40:08.470Z,82.26
2017-04-27T03:41:07.916Z,82.14
2017-04-27T03:42:08.546Z,81.75
2017-04-27T03:43:08.146Z,81.89
2017-04-27T03:44:07.715Z,82.33
2017-04-27T03:45:08.289Z,82.34
2017-04-27T03:46:07.784Z,82.10
2017-04-27T03:47:08.347Z,82.29
2017-04-27T03:48:07.856Z,82.63
2017-04-27T03:49:08.378Z,82.46
2017-04-27T03:50:08.015Z,82.59
2017-04-27T03:51:07.503Z,83.27
2017-04-27T03:52:08.091Z,83.25
2017-04-27T03:53:07.684Z,82.62
2017-04-27T03:54:08.234Z,82.85
2017-04-27T03:55:07.900Z,82.86
2017-04-27T03:56:08.554Z,82.46
2017-04-27T03:57:08.184Z,82.15
2017-04-27T03:58:07.776Z,82.01
2017-04-27T03:59:08.384Z,82.09
2017-04-27T04:00:07.915Z,82.24
2017-04-27T04:01:08.534Z,82.84
2017-04-27T04:02:18.656Z,82.95
2017-04-27T04:03:08.265Z,83.17
2017-04-27T04:04:07.795Z,83.60
2017-04-27T04:05:08.391Z,83.56
2017-04-27T04:06:07.992Z,83.10
2017-04-27T04:07:07.757Z,83.09
2017-04-27T04:08:08.314Z,83.21
2017-04-27T04:09:07.845Z,83.04
2017-04-27T04:10:08.351Z,82.98
2017-04-27T04:11:08.399Z,83.25
2017-04-27T04:12:07.945Z,83.39
2017-04-27T04:13:07.559Z,83.17
2017-04-27T04:14:08.120Z,82.62
2017-04-27T04:15:07.553Z,82.74
2017-04-27T04:16:07.863Z,82.76
2017-04-27T04:17:08.610Z,82.49
2017-04-27T04:18:08.175Z,82.89
2017-04-27T04:19:07.788Z,83.37
2017-04-27T04:20:08.225Z,83.42
2017-04-27T04:21:07.993Z,82.90
2017-04-27T04:22:07.546Z,82.90
2017-04-27T04:23:08.135Z,82.86
2017-04-27T04:24:07.619Z,82.57
2017-04-27T04:25:11.116Z,82.34
2017-04-27T04:26:08.344Z,82.55
2017-04-27T04:27:08.423Z,82.39
2017-04-27T04:28:07.974Z,82.41
2017-04-27T04:29:08.007Z,82.32
2017-04-27T04:30:07.403Z,82.56
2017-04-27T04:31:07.882Z,82.49
2017-04-27T04:32:08.403Z,82.51
2017-04-27T04:33:07.993Z,82.57
2017-04-27T04:34:07.535Z,82.47
2017-04-27T04:35:07.978Z,82.83
2017-04-27T04:36:07.969Z,82.85
2017-04-27T04:37:07.573Z,82.90
2017-04-27T04:38:08.146Z,82.74
2017-04-27T04:39:07.738Z,82.54
2017-04-27T04:40:08.329Z,82.13
2017-04-27T04:41:07.860Z,81.92
2017-04-27T04:42:08.758Z,81.45
2017-04-27T04:43:08.396Z,81.79
2017-04-27T04:44:07.887Z,82.58
2017-04-27T04:45:08.380Z,82.70
2017-04-27T04:46:07.862Z,82.98
2017-04-27T04:47:08.482Z,82.33
2017-04-27T04:48:07.933Z,82.07
2017-04-27T04:49:07.768Z,82.12
2017-04-27T04:50:08.368Z,82.16
2017-04-27T04:51:07.901Z,82.16
2017-04-27T04:52:07.764Z,81.85
2017-04-27T04:53:08.366Z,81.87
2017-04-27T04:54:07.924Z,82.25
2017-04-27T04:55:08.405Z,82.29
2017-04-27T04:56:07.920Z,82.72
2017-04-27T04:57:08.819Z,81.96
2017-04-27T04:58:08.400Z,82.39
2017-04-27T04:59:07.936Z,82.06
2017-04-27T05:00:07.508Z,82.60
2017-04-27T05:01:08.059Z,82.78
2017-04-27T05:02:07.584Z,83.16
2017-04-27T05:03:08.160Z,83.35
2017-04-27T05:04:07.728Z,82.97
2017-04-27T05:05:08.433Z,82.48
2017-04-27T05:06:08.062Z,82.59
2017-04-27T05:07:07.874Z,82.72
2017-04-27T05:08:08.578Z,82.94
2017-04-27T05:09:08.219Z,83.23
2017-04-27T05:10:07.766Z,83.09
2017-04-27T05:11:08.318Z,82.77
2017-04-27T05:12:08.265Z,82.62
2017-04-27T05:13:07.814Z,82.62
2017-04-27T05:14:08.473Z,82.33
2017-04-27T05:15:08.035Z,82.46
2017-04-27T05:16:07.610Z,82.57
2017-04-27T05:17:08.415Z,82.59
2017-04-27T05:18:07.868Z,82.66
2017-04-27T05:19:08.433Z,82.52
2017-04-27T05:20:07.926Z,82.76
2017-04-27T05:21:08.445Z,83.27
2017-04-27T05:22:08.078Z,83.53
2017-04-27T05:23:07.694Z,83.60
2017-04-27T05:24:08.303Z,83.83
2017-04-27T05:25:08.135Z,84.23
2017-04-27T05:26:07.619Z,84.08
2017-04-27T05:27:08.377Z,83.57
2017-04-27T05:28:07.891Z,83.02
2017-04-27T05:29:08.414Z,83.18
2017-04-27T05:30:07.884Z,83.31
2017-04-27T05:31:08.447Z,83.52
2017-04-27T05:32:07.925Z,83.41
2017-04-27T05:33:08.494Z,83.10
2017-04-27T05:34:08.017Z,83.10
2017-04-27T05:35:07.614Z,82.99
2017-04-27T05:36:08.169Z,82.85
2017-04-27T05:37:07.945Z,82.90
2017-04-27T05:38:07.476Z,83.15
2017-04-27T05:39:08.057Z,83.34
2017-04-27T05:40:07.610Z,83.67
2017-04-27T05:41:08.132Z,83.41
2017-04-27T05:42:08.005Z,83.11
2017-04-27T05:43:07.553Z,83.18
2017-04-27T05:44:08.054Z,83.50
2017-04-27T05:45:07.564Z,83.66
2017-04-27T05:46:08.034Z,83.48
2017-04-27T05:47:07.534Z,83.14
2017-04-27T05:48:08.036Z,82.86
2017-04-27T05:49:07.577Z,82.96
2017-04-27T05:50:08.112Z,82.99
2017-04-27T05:51:07.575Z,83.00
2017-04-27T05:52:08.201Z,83.27
2017-04-27T05:53:07.680Z,83.52
2017-04-27T05:54:08.153Z,82.97
2017-04-27T05:55:07.761Z,82.64
2017-04-27T05:56:08.371Z,82.70
2017-04-27T05:57:08.364Z,82.36
2017-04-27T05:58:07.851Z,82.20
2017-04-27T05:59:08.417Z,82.26
2017-04-27T06:00:08.101Z,82.28
2017-04-27T06:01:07.596Z,82.55
2017-04-27T06:02:08.049Z,82.61
2017-04-27T06:03:07.591Z,82.31
2017-04-27T06:04:08.187Z,82.50
2017-04-27T06:05:07.717Z,82.40
2017-04-27T06:06:08.268Z,82.46
2017-04-27T06:07:07.972Z,82.41
2017-04-27T06:08:07.484Z,82.06
2017-04-27T06:09:07.946Z,82.17
2017-04-27T06:10:07.488Z,82.51
2017-04-27T06:11:08.004Z,82.38
2017-04-27T06:12:07.932Z,82.36
2017-04-27T06:13:08.485Z,81.94
2017-04-27T06:14:08.016Z,82.05
2017-04-27T06:15:07.599Z,82.33
2017-04-27T06:16:08.418Z,82.51
2017-04-27T06:17:08.067Z,82.94
2017-04-27T06:18:07.879Z,83.08
2017-04-27T06:19:08.429Z,82.85
2017-04-27T06:20:08.250Z,82.72
2017-04-27T06:21:07.736Z,82.36
2017-04-27T06:22:08.348Z,82.80
2017-04-27T06:23:07.959Z,82.89
2017-04-27T06:24:07.816Z,82.52
2017-04-27T06:25:08.423Z,82.53
2017-04-27T06:26:08.047Z,82.15
2017-04-27T06:27:07.994Z,82.21
2017-04-27T06:28:07.618Z,82.38
2017-04-27T06:29:08.146Z,82.29
2017-04-27T06:30:07.860Z,82.36
2017-04-27T06:31:08.389Z,82.65
2017-04-27T06:32:07.999Z,82.94
2017-04-27T06:33:07.453Z,83.22
2017-04-27T06:34:07.960Z,83.26
2017-04-27T06:35:07.554Z,83.11
2017-04-27T06:36:08.109Z,83.00
2017-04-27T06:37:07.779Z,82.78
2017-04-27T06:38:08.679Z,82.33
2017-04-27T06:39:08.244Z,82.43
2017-04-27T06:40:08.051Z,82.11
2017-04-27T06:41:07.875Z,83.29
2017-04-27T06:42:08.889Z,83.71
2017-04-27T06:43:08.576Z,83.75
2017-04-27T06:44:08.214Z,83.60
2017-04-27T06:45:26.378Z,83.60
2017-04-27T06:46:07.979Z,83.64
2017-04-27T06:47:07.539Z,83.66
2017-04-27T06:48:26.610Z,83.45
2017-04-27T06:49:08.316Z,83.34
2017-04-27T06:50:08.046Z,83.05
2017-04-27T06:51:07.547Z,83.20
2017-04-27T06:52:08.147Z,82.79
2017-04-27T06:53:07.617Z,82.54
2017-04-27T06:54:08.136Z,82.96
2017-04-27T06:55:07.711Z,83.01
2017-04-27T06:56:08.196Z,82.79
2017-04-27T06:57:08.229Z,82.57
2017-04-27T06:58:07.918Z,82.14
2017-04-27T06:59:08.429Z,82.09
2017-04-27T07:00:08.066Z,82.16
2017-04-27T07:01:07.632Z,82.51
2017-04-27T07:02:08.169Z,82.70
2017-04-27T07:03:07.796Z,82.63
2017-04-27T07:04:08.421Z,82.90
2017-04-27T07:05:08.002Z,82.42
2017-04-27T07:06:07.488Z,81.97
2017-04-27T07:07:08.225Z,81.98
2017-04-27T07:08:07.764Z,81.35
2017-04-27T07:09:08.296Z,81.87
2017-04-27T07:10:08.022Z,81.79
2017-04-27T07:11:07.718Z,81.88
2017-04-27T07:12:08.766Z,82.01
2017-04-27T07:13:08.371Z,81.96
2017-04-27T07:14:07.908Z,82.11
2017-04-27T07:15:08.484Z,82.27
2017-04-27T07:16:08.188Z,82.38
2017-04-27T07:17:07.893Z,82.61
2017-04-27T07:18:08.491Z,82.19
2017-04-27T07:19:08.071Z,82.78
2017-04-27T07:20:07.832Z,82.95
2017-04-27T07:21:08.327Z,82.42
2017-04-27T07:22:07.797Z,83.07
2017-04-27T07:23:08.025Z,83.24
2017-04-27T07:24:07.494Z,83.17
2017-04-27T07:25:08.042Z,83.52
2017-04-27T07:26:07.547Z,83.17
2017-04-27T07:27:08.219Z,82.99
2017-04-27T07:28:07.742Z,82.73
2017-04-27T07:29:08.316Z,82.97
2017-04-27T07:30:07.898Z,82.86
2017-04-27T07:31:08.410Z,82.84
2017-04-27T07:32:08.158Z,83.01
2017-04-27T07:33:07.685Z,82.80
2017-04-27T07:34:08.258Z,82.83
2017-04-27T07:35:07.798Z,83.28
2017-04-27T07:36:08.328Z,82.19
2017-04-27T07:37:08.189Z,81.92
2017-04-27T07:38:07.705Z,81.03
2017-04-27T07:39:08.225Z,80.13
2017-04-27T07:40:07.801Z,80.29
2017-04-27T07:41:08.345Z,80.14
2017-04-27T07:42:08.310Z,80.38
2017-04-27T07:43:08.162Z,80.49
2017-04-27T07:44:07.763Z,80.36
2017-04-27T07:45:08.256Z,80.70
2017-04-27T07:46:07.716Z,80.51
2017-04-27T07:47:08.284Z,81.16
2017-04-27T07:48:07.878Z,80.76
2017-04-27T07:49:08.340Z,79.79
2017-04-27T07:50:07.906Z,80.89
2017-04-27T07:51:08.464Z,80.85
2017-04-27T07:52:08.289Z,82.36
2017-04-27T07:53:08.011Z,83.53
2017-04-27T07:54:07.473Z,84.56
2017-04-27T07:55:08.379Z,84.59
2017-04-27T07:56:07.891Z,84.34
2017-04-27T07:57:08.656Z,83.94
2017-04-27T07:58:08.242Z,83.81
2017-04-27T07:59:07.770Z,83.48
2017-04-27T08:00:08.362Z,84.55
2017-04-27T08:01:07.869Z,84.62
2017-04-27T08:02:08.429Z,85.05
2017-04-27T08:03:08.192Z,84.74
2017-04-27T08:04:07.795Z,84.75
2017-04-27T08:05:08.357Z,84.63
2017-04-27T08:06:07.933Z,83.94
2017-04-27T08:07:08.549Z,84.22
2017-04-27T08:08:08.065Z,84.62
2017-04-27T08:09:07.619Z,84.25
2017-04-27T08:10:08.130Z,83.41
2017-04-27T08:11:07.657Z,83.34
2017-04-27T08:12:08.672Z,83.78
2017-04-27T08:13:08.199Z,83.32
2017-04-27T08:14:07.825Z,83.97
2017-04-27T08:15:08.689Z,84.13
2017-04-27T08:16:08.200Z,84.15
2017-04-27T08:17:07.799Z,84.26
2017-04-27T08:18:08.310Z,84.67
2017-04-27T08:19:07.846Z,83.39
2017-04-27T08:20:08.332Z,83.78
2017-04-27T08:21:07.935Z,83.78
2017-04-27T08:22:08.389Z,83.78
2017-04-27T08:23:08.010Z,84.07
2017-04-27T08:24:07.487Z,84.55
2017-04-27T08:25:08.029Z,84.04
2017-04-27T08:26:07.891Z,83.87
2017-04-27T08:27:08.891Z,83.52
2017-04-27T08:28:08.462Z,83.35
2017-04-27T08:29:07.981Z,83.40
2017-04-27T08:30:07.521Z,84.21
2017-04-27T08:31:08.080Z,84.60
2017-04-27T08:32:07.618Z,84.59
2017-04-27T08:33:08.291Z,84.32
2017-04-27T08:34:07.847Z,84.84
2017-04-27T08:35:08.457Z,84.95
2017-04-27T08:36:07.961Z,83.89
2017-04-27T08:37:07.808Z,83.02
2017-04-27T08:38:08.385Z,83.24
2017-04-27T08:39:08.153Z,82.79
2017-04-27T08:40:07.725Z,83.26
2017-04-27T08:41:08.332Z,83.55
2017-04-27T08:42:08.410Z,83.73
2017-04-27T08:43:07.919Z,84.29
2017-04-27T08:44:08.575Z,84.84
2017-04-27T08:45:08.137Z,84.28
2017-04-27T08:46:07.769Z,83.77
2017-04-27T08:47:08.281Z,84.23
2017-04-27T08:48:07.824Z,84.05
2017-04-27T08:49:08.462Z,84.00
2017-04-27T08:50:08.033Z,83.82
2017-04-27T08:51:07.553Z,84.09
2017-04-27T08:52:08.212Z,83.83
2017-04-27T08:53:07.735Z,83.14
2017-04-27T08:54:08.344Z,83.56
2017-04-27T08:55:07.858Z,84.41
2017-04-27T08:56:08.556Z,84.40
2017-04-27T08:57:08.150Z,84.52
2017-04-27T08:58:07.678Z,84.22
2017-04-27T08:59:08.350Z,83.72
2017-04-27T09:00:07.876Z,83.77
2017-04-27T09:01:08.537Z,83.79
2017-04-27T09:02:08.141Z,83.41
2017-04-27T09:03:07.729Z,83.11
2017-04-27T09:04:08.299Z,82.67
2017-04-27T09:05:07.931Z,84.10
2017-04-27T09:06:08.562Z,84.07
2017-04-27T09:07:08.248Z,83.77
2017-04-27T09:08:07.881Z,83.27
2017-04-27T09:09:08.480Z,83.38
2017-04-27T09:10:08.084Z,83.66
2017-04-27T09:11:07.738Z,83.08
2017-04-27T09:12:08.739Z,84.45
2017-04-27T09:13:08.329Z,84.75
2017-04-27T09:14:07.857Z,84.38
2017-04-27T09:15:08.438Z,84.60
2017-04-27T09:16:07.925Z,84.59
2017-04-27T09:17:08.649Z,84.12
2017-04-27T09:18:08.115Z,83.95
2017-04-27T09:19:07.917Z,82.91
2017-04-27T09:20:08.519Z,81.97
2017-04-27T09:21:07.997Z,83.06
2017-04-27T09:22:07.425Z,83.47
2017-04-27T09:23:07.993Z,83.81
2017-04-27T09:24:07.564Z,82.66
2017-04-27T09:25:08.121Z,82.41
2017-04-27T09:26:07.629Z,82.44
2017-04-27T09:27:08.699Z,82.94
2017-04-27T09:28:08.411Z,82.12
2017-04-27T09:29:07.970Z,82.66
2017-04-27T09:30:07.486Z,83.42
2017-04-27T09:31:07.987Z,83.72
2017-04-27T09:32:07.505Z,84.52
2017-04-27T09:33:08.198Z,83.24
2017-04-27T09:34:07.777Z,83.67
2017-04-27T09:35:08.369Z,82.97
2017-04-27T09:36:07.966Z,83.19
2017-04-27T09:37:07.612Z,83.25
2017-04-27T09:38:08.191Z,83.73
2017-04-27T09:39:07.687Z,83.68
2017-04-27T09:40:08.365Z,83.59
2017-04-27T09:41:07.966Z,84.44
2017-04-27T09:42:08.027Z,84.08
2017-04-27T09:43:07.622Z,84.59
2017-04-27T09:44:08.190Z,84.59
2017-04-27T09:45:07.694Z,83.85
2017-04-27T09:46:08.278Z,82.42
2017-04-27T09:47:07.807Z,82.61
2017-04-27T09:48:08.410Z,83.74
2017-04-27T09:49:08.016Z,83.07
2017-04-27T09:50:07.540Z,83.59
2017-04-27T09:51:08.104Z,83.89
2017-04-27T09:52:07.605Z,83.98
2017-04-27T09:53:08.198Z,83.81
2017-04-27T09:54:07.770Z,83.05
2017-04-27T09:55:08.312Z,83.60
2017-04-27T09:56:07.861Z,83.17
2017-04-27T09:57:08.665Z,82.92
2017-04-27T09:58:08.214Z,83.34
2017-04-27T09:59:07.670Z,81.66
2017-04-27T10:00:08.302Z,81.62
2017-04-27T10:01:07.778Z,82.20
2017-04-27T10:02:08.286Z,82.79
2017-04-27T10:03:07.845Z,81.62
2017-04-27T10:04:07.729Z,80.93
2017-04-27T10:05:08.260Z,81.72
2017-04-27T10:06:07.891Z,81.85
2017-04-27T10:07:08.513Z,82.37
2017-04-27T10:08:08.069Z,81.80
2017-04-27T10:09:07.581Z,82.50
2017-04-27T10:10:08.169Z,82.40
2017-04-27T10:11:07.711Z,83.24
2017-04-27T10:12:08.689Z,81.77
2017-04-27T10:13:08.233Z,81.60
2017-04-27T10:14:07.728Z,82.13
2017-04-27T10:15:08.294Z,82.40
2017-04-27T10:16:07.826Z,83.12
2017-04-27T10:17:08.630Z,81.90
2017-04-27T10:18:08.178Z,82.80
2017-04-27T10:19:07.672Z,83.02
2017-04-27T10:20:08.300Z,83.38
2017-04-27T10:21:07.845Z,83.16
2017-04-27T10:22:08.423Z,83.25
2017-04-27T10:23:08.050Z,83.20
2017-04-27T10:24:07.647Z,84.03
2017-04-27T10:25:08.181Z,82.38
2017-04-27T10:26:07.667Z,80.43
2017-04-27T10:27:08.499Z,81.09
2017-04-27T10:28:08.073Z,81.54
2017-04-27T10:29:07.551Z,81.70
2017-04-27T10:30:08.117Z,81.52
2017-04-27T10:31:07.592Z,82.09
2017-04-27T10:32:08.252Z,82.16
2017-04-27T10:33:07.872Z,82.22
2017-04-27T10:34:08.771Z,82.15
2017-04-27T10:35:08.468Z,81.00
2017-04-27T10:36:08.120Z,81.57
2017-04-27T10:37:07.738Z,81.65
2017-04-27T10:38:08.273Z,81.86
2017-04-27T10:39:07.763Z,82.17
2017-04-27T10:40:08.279Z,81.65
2017-04-27T10:41:07.929Z,81.97
2017-04-27T10:42:08.911Z,82.08
2017-04-27T10:43:08.411Z,82.74
2017-04-27T10:44:07.869Z,82.96
2017-04-27T10:45:08.482Z,82.65
2017-04-27T10:46:08.018Z,81.39
2017-04-27T10:47:07.478Z,81.60
2017-04-27T10:48:07.916Z,82.25
2017-04-27T10:49:07.581Z,82.07
2017-04-27T10:50:08.110Z,82.93
2017-04-27T10:51:07.726Z,82.46
2017-04-27T10:52:08.212Z,82.76
2017-04-27T10:53:07.832Z,83.12
2017-04-27T10:54:08.429Z,82.26
2017-04-27T10:55:08.124Z,82.20
2017-04-27T10:56:07.948Z,81.84
2017-04-27T10:57:07.788Z,82.66
2017-04-27T10:58:08.295Z,82.79
2017-04-27T10:59:08.124Z,82.11
2017-04-27T11:00:07.676Z,83.11
2017-04-27T11:01:08.258Z,83.13
2017-04-27T11:02:07.721Z,82.42
2017-04-27T11:03:08.400Z,82.59
2017-04-27T11:04:08.853Z,82.58
2017-04-27T11:05:08.730Z,82.94
2017-04-27T11:06:08.397Z,83.18
2017-04-27T11:07:08.008Z,83.12
2017-04-27T11:08:07.552Z,81.41
2017-04-27T11:09:08.019Z,81.78
2017-04-27T11:10:07.641Z,82.61
2017-04-27T11:11:08.298Z,82.32
2017-04-27T11:12:08.240Z,81.72
2017-04-27T11:13:07.762Z,81.57
2017-04-27T11:14:08.264Z,82.29
2017-04-27T11:15:08.064Z,83.32
2017-04-27T11:16:07.676Z,82.94
2017-04-27T11:17:08.398Z,81.45
2017-04-27T11:18:07.931Z,81.91
2017-04-27T11:19:08.501Z,81.92
2017-04-27T11:20:07.941Z,81.59
2017-04-27T11:21:07.403Z,81.52
2017-04-27T11:22:07.858Z,79.92
2017-04-27T11:23:08.492Z,80.08
2017-04-27T11:24:07.932Z,81.82
2017-04-27T11:25:08.502Z,82.32
2017-04-27T11:26:08.109Z,82.41
2017-04-27T11:27:07.824Z,82.46
2017-04-27T11:28:08.733Z,81.93
2017-04-27T11:29:08.337Z,81.14
2017-04-27T11:30:08.161Z,81.28
2017-04-27T11:31:07.718Z,80.98
2017-04-27T11:32:08.201Z,80.18
2017-04-27T11:33:07.813Z,81.41
2017-04-27T11:34:08.394Z,81.46
2017-04-27T11:35:07.868Z,81.65
2017-04-27T11:36:08.554Z,81.78
2017-04-27T11:37:08.130Z,82.76
2017-04-27T11:38:07.975Z,82.30
2017-04-27T11:39:07.418Z,80.39
2017-04-27T11:40:07.989Z,79.42
2017-04-27T11:41:07.450Z,79.50
2017-04-27T11:42:08.477Z,81.06
2017-04-27T11:43:07.979Z,81.56
2017-04-27T11:44:08.426Z,80.70
2017-04-27T11:45:08.025Z,80.75
2017-04-27T11:46:07.480Z,80.26
2017-04-27T11:47:07.977Z,80.39
2017-04-27T11:48:07.461Z,81.08
2017-04-27T11:49:08.046Z,82.30
2017-04-27T11:50:07.678Z,82.70
2017-04-27T11:51:08.123Z,82.94
2017-04-27T11:52:08.394Z,81.66
2017-04-27T11:53:08.281Z,80.48
2017-04-27T11:54:08.138Z,81.42
2017-04-27T11:55:07.669Z,79.68
2017-04-27T11:56:08.214Z,79.21
2017-04-27T11:57:07.998Z,79.81
2017-04-27T11:58:07.923Z,80.51
2017-04-27T11:59:08.788Z,79.65
2017-04-27T12:00:08.322Z,80.23
2017-04-27T12:01:07.855Z,78.51
2017-04-27T12:02:08.487Z,79.30
2017-04-27T12:03:08.060Z,79.88
2017-04-27T12:04:07.555Z,79.81
2017-04-27T12:05:08.290Z,81.05
2017-04-27T12:06:07.788Z,79.69
2017-04-27T12:07:08.028Z,80.51
2017-04-27T12:08:07.590Z,82.21
2017-04-27T12:09:08.219Z,80.76
2017-04-27T12:10:07.815Z,80.70
2017-04-27T12:11:08.709Z,79.60
2017-04-27T12:12:08.492Z,79.10
2017-04-27T12:13:08.251Z,78.95
2017-04-27T12:14:07.852Z,78.82
2017-04-27T12:15:08.397Z,79.34
2017-04-27T12:16:07.754Z,79.22
2017-04-27T12:17:08.412Z,79.86
2017-04-27T12:18:08.008Z,80.85
2017-04-27T12:19:07.669Z,79.19
2017-04-27T12:20:08.099Z,79.29
2017-04-27T12:21:07.793Z,79.86
2017-04-27T12:22:08.384Z,80.52
2017-04-27T12:23:08.017Z,80.60
2017-04-27T12:24:07.585Z,80.82
2017-04-27T12:25:08.268Z,81.17
2017-04-27T12:26:07.731Z,80.95
2017-04-27T12:27:08.341Z,80.47
2017-04-27T12:28:07.967Z,80.24
2017-04-27T12:29:07.441Z,83.04
2017-04-27T12:30:08.096Z,82.61
2017-04-27T12:31:07.747Z,82.52
2017-04-27T12:32:07.551Z,83.01
2017-04-27T12:33:08.153Z,81.38
2017-04-27T12:34:07.954Z,80.13
2017-04-27T12:35:07.486Z,80.34
2017-04-27T12:36:07.971Z,80.55
2017-04-27T12:37:07.560Z,80.56
2017-04-27T12:38:08.137Z,81.21
2017-04-27T12:39:08.081Z,81.28
2017-04-27T12:40:07.963Z,81.57
2017-04-27T12:41:07.716Z,80.63
2017-04-27T12:42:08.790Z,80.46
2017-04-27T12:43:08.384Z,81.25
2017-04-27T12:44:07.856Z,81.31
2017-04-27T12:45:08.453Z,81.35
2017-04-27T12:46:08.040Z,82.29
2017-04-27T12:47:07.563Z,81.22
2017-04-27T12:48:08.119Z,81.84
2017-04-27T12:49:07.866Z,81.89
2017-04-27T12:50:08.468Z,81.05
2017-04-27T12:51:08.070Z,81.17
2017-04-27T12:52:07.846Z,81.29